x

Columbia River Bar - 20nm West Of Columbia River Mouth (46029) Wave Buoy

3:50pm - Thu 5th Mar 2015 All times are PST. -8 hours from GMT.

  • Sig Wave height 3.6ft
  • Swell Direction
  • Peak Period 16s
  • Average Period 9s
  • Wind
    9mph
  • Sea Temp 52°f
  • Air Temp 51°f
  • Sea Pressure 1027.5mb
  • Columbia River Bar - 20nm West Of Columbia River Mouth
  • Columbia River Bar - 20nm West Of Columbia River Mouth

More Historic Weather Station data

Upgrade to MSW Pro to gain access to the past 30 days of data for over 8000 Wavebouys and Weather Stations around the globe.

Join Pro

Comparision Forecast

View Surf forecast
   
Thu 03/05 3:50pm 3.5ft 16s 9s 9
mph
1027.5mb 52f 51f
2:50pm 4ft 16s 10s 4 7 mph 1027.7mb 52f 50f
1:50pm 3.5ft 16s 9s 4
mph
1027.8mb 52f 50f
12:50pm 3.5ft 16s 9s 2
mph
1028.1mb 52f 49f
11:50am 3.5ft 16s 8s 2 4 mph 1028.2mb 51f 49f
10:50am 4ft 16s 8s 2 4 mph 1028.1mb 51f 48f
9:50am 3.5ft 16s 7s 7 11 mph 1028.1mb 51f 49f
8:50am 3ft 16s 7s 11
mph
1027.8mb 50f 49f
7:50am 3.5ft 17s 8s 9 11 mph 1027.2mb 50f 49f
6:50am 3.5ft 15s 7s 9
mph
1026.7mb 50f 49f
5:50am 3ft 15s 7s 9
mph
1026.3mb 50f 49f
4:50am 3.5ft 17s 7s 9 11 mph 1025.7mb 51f 49f
3:50am 3ft 17s 6s 9 11 mph 1025.6mb 50f 49f
2:50am 3.5ft 17s 7s 9 11 mph 1025.9mb 50f 49f
1:50am 3ft 17s 6s 9
mph
1025.7mb 50f 49f
12:50am 3.5ft 17s 6s 11 13 mph 1025.6mb 50f 50f
Wed 03/04 11:50pm 3.5ft 17s 6s 11 13 mph 1025.7mb 51f 50f
10:50pm 3.5ft 16s 5s 13 18 mph 1025.8mb 51f 50f
9:50pm 3.5ft 17s 5s 16 18 mph 1025.6mb 53f 51f
8:50pm 2.5ft 17s 4s 16 18 mph 1025.2mb 53f 51f
7:50pm 3ft 11s 4s 16 18 mph 1025mb 53f 51f
6:50pm 2.5ft 17s 5s 16 18 mph 1025.1mb 53f 51f
5:50pm 2.5ft 19s 6s 16 18 mph 1024.9mb 53f 51f
4:50pm 2.5ft 17s 7s 13
mph
1025.1mb 53f 51f
3:50pm 2.5ft 11s 7s 9 11 mph 1025.4mb 54f 51f
2:50pm 2.5ft 12s 7s 9 11 mph 1025.1mb 53f 51f
1:50pm 2.5ft 19s 7s 7 9 mph 1025.2mb 53f 50f
12:50pm 2.5ft 11s 7s 4
mph
1025.4mb 53f 49f
11:50am 2.5ft 11s 7s 2 4 mph 1025.4mb 53f 48f
10:50am 2.5ft 11s 7s 4
mph
1025.5mb 53f 48f
9:50am 2.5ft 11s 7s 4
mph
1025.6mb 53f 48f
8:50am 2.5ft 19s 7s 4
mph
1025.3mb 52f 48f
7:50am 2.5ft 12s 6s 4
mph
1024.8mb 50f 47f
6:50am 3ft 11s 6s 4
mph
1024.4mb 50f 47f
5:50am 3ft 12s 6s 2 4 mph 1024.3mb 49f 47f
4:50am 3ft 7s 6s 4 7 mph 1024mb 49f 47f
3:50am 3ft 11s 6s 4 7 mph 1023.9mb 49f 47f
2:50am 3ft 7s 6s 4
mph
1024mb 49f 48f
1:50am 3ft 7s 6s 7
mph
1024mb 52f 48f
Tue 03/03 11:50pm 3.5ft 12s 7s 9
mph
1023.6mb 52f 49f
10:50pm 3.5ft 13s 7s 9 11 mph 1023.4mb 52f 50f
9:50pm 3.5ft 12s 7s 9 11 mph 1023.3mb 52f 51f
8:50pm 3.5ft 8s 7s 9 11 mph 1023mb 52f 51f
7:50pm 3.5ft 8s 7s 7 9 mph 1023mb 52f 51f
6:50pm 3.5ft 8s 7s 7 9 mph 1022.9mb 51f 50f
5:50pm 3.5ft 12s 7s 7
mph
1022.8mb 52f 51f
4:50pm 4.5ft 8s 7s 4 7 mph 1022.9mb 52f 51f
3:50pm 4ft 8s 6s 2 4 mph 1023.1mb 51f 50f
2:50pm 4.5ft 11s 7s 2
mph
1022.9mb 51f 50f
1:50pm 4.5ft 8s 7s  -  2 mph 1023.4mb 51f 50f
12:50pm 4.5ft 9s 7s 7
mph
1023.5mb 50f 48f
11:50am 4.5ft 8s 7s 9
mph
1023.5mb 50f 47f
10:50am 4.5ft 8s 7s 4 7 mph 1023.4mb 50f 48f
9:50am 4.5ft 9s 6s 11 13 mph 1023.3mb 49f 49f
8:50am 4.5ft 9s 7s 9 11 mph 1023.2mb 50f 48f
7:50am 4ft 9s 6s 9 11 mph 1022.7mb 49f 48f
6:50am 4.5ft 12s 6s 7 9 mph 1022.3mb 49f 48f
5:50am 4.5ft 8s 6s 4 7 mph 1022.4mb 49f 47f
4:50am 4.5ft 9s 6s 2
mph
1022.3mb 49f 48f
3:50am 4.5ft 9s 6s 4
mph
1022.1mb 49f 48f
2:50am 5ft 9s 6s 7
mph
1022mb 49f 50f
1:50am 5.5ft 9s 6s 4 7 mph 1021.6mb 49f 50f
12:50am 6ft 9s 6s 4 7 mph 1021.1mb 49f 50f
Mon 03/02 11:50pm 6ft 9s 6s 9
mph
1020.7mb 49f 50f
10:50pm 6ft 9s 7s 11 13 mph 1020.2mb 49f 50f
9:50pm 6ft 9s 6s 13 16 mph 1020.1mb 50f 51f
8:50pm 5ft 9s 6s 16 18 mph 1019.7mb 52f 51f
7:50pm 5ft 9s 6s 18 20 mph 1019mb 52f 51f
6:50pm 5ft 8s 6s 16 18 mph 1018.6mb 53f 50f
5:50pm 5ft 8s 5s 18 20 mph 1018mb 53f 50f
4:50pm 5.5ft 9s 6s 18 20 mph 1017.6mb 51f 49f
3:50pm 5.5ft 9s 6s 18 20 mph 1017.6mb 51f 49f
2:50pm 5.5ft 9s 6s 18 22 mph 1017.5mb 50f 49f
1:50pm 6ft 8s 6s 16 18 mph 1017mb 50f 47f
12:50pm 6ft 9s 6s 18 20 mph 1017.1mb 50f 47f
11:50am 6ft 9s 6s 18 22 mph 1016.9mb 50f 46f
10:50am 6ft 9s 7s 16 18 mph 1016.4mb 49f 46f
9:50am 6.5ft 9s 7s 11 13 mph 1016.1mb 49f 46f
8:50am 6ft 9s 6s 13 16 mph 1015.4mb 49f 46f
7:50am 7ft 8s 6s 13 16 mph 1015mb 49f 46f
6:50am 7ft 8s 6s 13 16 mph 1014.5mb 53f 46f
5:50am 6.5ft 9s 6s 13 18 mph 1014.1mb 53f 46f
4:50am 6ft 8s 5s 18 20 mph 1013.8mb 53f 47f
3:50am 6.5ft 8s 6s 18 25 mph 1013.7mb 53f 47f
2:50am 5ft 8s 5s 20 25 mph 1013.7mb 53f 48f
1:50am 5.5ft 8s 5s 20 22 mph 1013.8mb 53f 48f